Time;durP1;ratioP1;P1;durP2;ratioP2;P2;SDS_P1;SDS_P2;PMS_P1;PMS_P2;Temp;Humidity;BMP_temperature;BMP_pressure;BME280_temperature;BME280_humidity;BME280_pressure;Samples;Min_cycle;Max_cycle;Signal;HPM_P1;HPM_P2
2023/05/06 00:01:39;;;;;;;;;;;;;;;;;;4936947;29;955;-60
2023/05/06 00:04:06;;;;;;;;;;;;;;;;;;4936716;29;1043;-56
2023/05/06 00:06:33;;;;;;;;;;;;;;;;;;4936559;29;919;-59
2023/05/06 00:09:01;;;;;;;;;;;;;;;;;;4936514;29;1903;-60
2023/05/06 00:11:28;;;;;;;;;;;;;;;;;;4936534;29;1103;-63
2023/05/06 00:13:55;;;;;;;;;;;;;;;;;;4935633;29;1135;-58
2023/05/06 00:16:22;;;;;;;;;;;;;;;;;;4935949;29;1067;-56
2023/05/06 00:18:49;;;;;;;;;;;;;;;;;;4936431;29;1001;-56
2023/05/06 00:21:17;;;;;;;;;;;;;;;;;;4936516;29;1058;-60
2023/05/06 00:23:44;;;;;;;;;;;;;;;;;;4923103;29;1201;-60
2023/05/06 00:26:11;;;;;;;;;;;;;;;;;;4918516;29;1102;-55
2023/05/06 00:28:38;;;;;;;;;;;;;;;;;;4936116;29;1982;-61
2023/05/06 00:31:06;;;;;;;;;;;;;;;;;;4936287;29;1275;-54
2023/05/06 00:33:33;;;;;;;;;;;;;;;;;;4936019;29;1180;-59
2023/05/06 00:36:00;;;;;;;;;;;;;;;;;;4934635;29;1180;-56
2023/05/06 00:38:27;;;;;;;;;;;;;;;;;;4936006;29;926;-57
2023/05/06 00:40:54;;;;;;;;;;;;;;;;;;4935892;29;1077;-59
2023/05/06 00:43:21;;;;;;;;;;;;;;;;;;4936027;29;1070;-54
2023/05/06 00:45:49;;;;;;;;;;;;;;;;;;4934490;29;1256;-54
2023/05/06 00:48:17;;;;;;;;;;;;;;;;;;4936244;29;991;-58
2023/05/06 00:50:44;;;;;;;;;;;;;;;;;;4935922;29;1899;-55
2023/05/06 00:53:11;;;;;;;;;;;;;;;;;;4935817;29;1263;-59
2023/05/06 00:55:39;;;;;;;;;;;;;;;;;;4935788;29;1362;-58
2023/05/06 00:58:06;;;;;;;;;;;;;;;;;;4935686;29;993;-60
2023/05/06 01:00:34;;;;;;;;;;;;;;;;;;4934606;29;1110;-58
2023/05/06 01:03:03;;;;;;;;;;;;;;;;;;4934268;29;1280;-59
2023/05/06 01:05:33;;;;;;;;;;;;;;;;;;4935667;29;1068;-60
2023/05/06 01:08:04;;;;;;;;;;;;;;;;;;4935312;29;1286;-51
2023/05/06 01:10:31;;;;;;;;;;;;;;;;;;4935321;29;1910;-58
2023/05/06 01:13:11;;;;;;;;;;;;;;;;;;4935352;29;1113;-58
2023/05/06 01:15:44;;;;;;;;;;;;;;;;;;4934019;29;1339;-59
2023/05/06 01:18:14;;;;;;;;;;;;;;;;;;4935525;29;1038;-59
2023/05/06 01:20:44;;;;;;;;;;;;;;;;;;4935318;29;1412;-60
2023/05/06 01:23:11;;;;;;;;;;;;;;;;;;4935455;29;1194;-58
2023/05/06 01:25:39;;;;;;;;;;;;;;;;;;4934836;29;1004;-57
2023/05/06 01:28:09;;;;;;;;;;;;;;;;;;4934203;29;1386;-58
2023/05/06 01:31:05;;;;;;;;;;;;;;;;;;4935157;29;1980;-59
2023/05/06 01:33:43;;;;;;;;;;;;;;;;;;4934415;29;1369;-59
2023/05/06 01:36:17;;;;;;;;;;;;;;;;;;4934898;29;1298;-56
2023/05/06 01:38:51;;;;;;;;;;;;;;;;;;4935157;29;1878;-50
2023/05/06 01:41:19;;;;;;;;;;;;;;;;;;4935230;29;1779;-57
2023/05/06 01:43:47;;;;;;;;;;;;;;;;;;4935104;29;2156;-57
2023/05/06 01:46:16;;;;;;;;;;;;;;;;;;4935111;29;2009;-58
2023/05/06 01:48:44;;;;;;;;;;;;;;;;;;4933250;29;2321;-55
2023/05/06 01:51:12;;;;;;;;;;;;;;;;;;4934407;29;2188;-57
2023/05/06 01:53:40;;;;;;;;;;;;;;;;;;4934884;29;1560;-59
2023/05/06 01:56:07;;;;;;;;;;;;;;;;;;4934716;29;1838;-41
2023/05/06 01:58:37;;;;;;;;;;;;;;;;;;4933510;29;2098;-44
2023/05/06 02:01:04;;;;;;;;;;;;;;;;;;4933366;29;2164;-59
2023/05/06 02:03:32;;;;;;;;;;;;;;;;;;4934587;29;2155;-59
2023/05/06 02:05:59;;;;;;;;;;;;;;;;;;4934705;29;1968;-59
2023/05/06 02:08:29;;;;;;;;;;;;;;;;;;4933327;29;2138;-60
2023/05/06 02:10:56;;;;;;;;;;;;;;;;;;4934344;29;2160;-50
2023/05/06 02:13:24;;;;;;;;;;;;;;;;;;4934429;29;2173;-55
2023/05/06 02:15:55;;;;;;;;;;;;;;;;;;4933287;29;2011;-52
2023/05/06 02:18:22;;;;;;;;;;;;;;;;;;4934003;29;2161;-49
2023/05/06 02:20:49;;;;;;;;;;;;;;;;;;4933227;29;2020;-52
2023/05/06 02:23:16;;;;;;;;;;;;;;;;;;4934303;29;1912;-58
2023/05/06 02:25:45;;;;;;;;;;;;;;;;;;4934249;29;1556;-58
2023/05/06 02:28:12;;;;;;;;;;;;;;;;;;4934024;29;1822;-59
2023/05/06 02:30:41;;;;;;;;;;;;;;;;;;4932885;29;2031;-59
2023/05/06 02:33:08;;;;;;;;;;;;;;;;;;4933982;29;2044;-59
2023/05/06 02:35:36;;;;;;;;;;;;;;;;;;4932910;29;1697;-60
2023/05/06 02:38:03;;;;;;;;;;;;;;;;;;4933829;29;1732;-60
2023/05/06 02:40:32;;;;;;;;;;;;;;;;;;4933886;29;2124;-59
2023/05/06 02:43:00;;;;;;;;;;;;;;;;;;4933750;29;2034;-60
2023/05/06 02:45:29;;;;;;;;;;;;;;;;;;4933828;29;2029;-59
2023/05/06 02:47:57;;;;;;;;;;;;;;;;;;4934144;29;1829;-59
2023/05/06 02:50:25;;;;;;;;;;;;;;;;;;4932369;29;1971;-57
2023/05/06 02:52:52;;;;;;;;;;;;;;;;;;4932619;29;1830;-54
2023/05/06 02:55:19;;;;;;;;;;;;;;;;;;4932511;29;1725;-52
2023/05/06 02:57:47;;;;;;;;;;;;;;;;;;4932462;29;2148;-49
2023/05/06 03:00:15;;;;;;;;;;;;;;;;;;4932942;29;2024;-51
2023/05/06 03:02:43;;;;;;;;;;;;;;;;;;4932472;29;1846;-59
2023/05/06 03:05:11;;;;;;;;;;;;;;;;;;4933939;29;1715;-59
2023/05/06 03:07:38;;;;;;;;;;;;;;;;;;4932414;29;2007;-58
2023/05/06 03:10:06;;;;;;;;;;;;;;;;;;4933422;29;2066;-52
2023/05/06 03:12:36;;;;;;;;;;;;;;;;;;4932253;29;1661;-58
2023/05/06 03:15:03;;;;;;;;;;;;;;;;;;4948488;29;2300;-51
2023/05/06 03:17:31;;;;;;;;;;;;;;;;;;4933501;29;1972;-48
2023/05/06 03:19:59;;;;;;;;;;;;;;;;;;4932401;29;2132;-54
2023/05/06 03:22:28;;;;;;;;;;;;;;;;;;4932289;29;1525;-49
2023/05/06 03:24:56;;;;;;;;;;;;;;;;;;4932313;29;1649;-47
2023/05/06 03:27:26;;;;;;;;;;;;;;;;;;4915102;29;2320;-57
2023/05/06 03:29:58;;;;;;;;;;;;;;;;;;4913444;29;2084;-54
2023/05/06 03:32:26;;;;;;;;;;;;;;;;;;4913649;29;2027;-50
2023/05/06 03:34:54;;;;;;;;;;;;;;;;;;4914923;29;1758;-58
2023/05/06 03:37:22;;;;;;;;;;;;;;;;;;4913265;29;1851;-54
2023/05/06 03:39:53;;;;;;;;;;;;;;;;;;4913815;29;2002;-58
2023/05/06 03:42:24;;;;;;;;;;;;;;;;;;4913523;29;1588;-55
2023/05/06 03:44:52;;;;;;;;;;;;;;;;;;4913550;29;2160;-52
2023/05/06 03:47:20;;;;;;;;;;;;;;;;;;4929209;29;1816;-57
2023/05/06 03:49:47;;;;;;;;;;;;;;;;;;4914359;29;2245;-44
2023/05/06 03:52:14;;;;;;;;;;;;;;;;;;4930997;29;2129;-59
2023/05/06 03:54:42;;;;;;;;;;;;;;;;;;4930676;29;2222;-57
2023/05/06 03:57:09;;;;;;;;;;;;;;;;;;4935733;29;1896;-58
2023/05/06 03:59:36;;;;;;;;;;;;;;;;;;4935661;29;2445;-58
2023/05/06 04:02:05;;;;;;;;;;;;;;;;;;4935295;29;1971;-58
2023/05/06 04:04:35;;;;;;;;;;;;;;;;;;4935557;29;1755;-58
2023/05/06 04:07:02;;;;;;;;;;;;;;;;;;4935548;29;2132;-50
2023/05/06 04:09:30;;;;;;;;;;;;;;;;;;4935382;29;1915;-53
2023/05/06 04:11:59;;;;;;;;;;;;;;;;;;4935229;29;2156;-52
2023/05/06 04:14:27;;;;;;;;;;;;;;;;;;4935493;29;1990;-54
2023/05/06 04:16:54;;;;;;;;;;;;;;;;;;4935080;29;1498;-52
2023/05/06 04:19:21;;;;;;;;;;;;;;;;;;4936539;29;1740;-59
2023/05/06 04:21:49;;;;;;;;;;;;;;;;;;4936674;29;1707;-58
2023/05/06 04:24:17;;;;;;;;;;;;;;;;;;4935072;29;2004;-58
2023/05/06 04:26:45;;;;;;;;;;;;;;;;;;4934975;29;2164;-57
2023/05/06 04:29:13;;;;;;;;;;;;;;;;;;4934737;29;1633;-53
2023/05/06 04:31:52;;;;;;;;;;;;;;;;;;4935046;29;2122;-52
2023/05/06 04:34:21;;;;;;;;;;;;;;;;;;4934985;29;2239;-54
2023/05/06 04:36:48;;;;;;;;;;;;;;;;;;4934880;29;1880;-51
2023/05/06 04:39:35;;;;;;;;;;;;;;;;;;4941865;28;2156;-55
2023/05/06 04:42:03;;;;;;;;;;;;;;;;;;4934605;29;2221;-51
2023/05/06 04:44:37;;;;;;;;;;;;;;;;;;4934811;29;2399;-51
2023/05/06 04:47:07;;;;;;;;;;;;;;;;;;4934846;29;2150;-58
2023/05/06 04:49:36;;;;;;;;;;;;;;;;;;4934565;29;1972;-55
2023/05/06 04:52:05;;;;;;;;;;;;;;;;;;4934825;29;2320;-55
2023/05/06 04:54:32;;;;;;;;;;;;;;;;;;4934390;29;1958;-54
2023/05/06 04:56:59;;;;;;;;;;;;;;;;;;4936153;29;2126;-54
2023/05/06 04:59:28;;;;;;;;;;;;;;;;;;4934713;29;1828;-50
2023/05/06 05:01:55;;;;;;;;;;;;;;;;;;4935411;29;2174;-57
2023/05/06 05:04:22;;;;;;;;;;;;;;;;;;4934199;29;1908;-54
2023/05/06 05:06:50;;;;;;;;;;;;;;;;;;4935735;29;1846;-51
2023/05/06 05:09:17;;;;;;;;;;;;;;;;;;4934241;29;2192;-51
2023/05/06 05:11:46;;;;;;;;;;;;;;;;;;4933867;29;1910;-46
2023/05/06 05:14:14;;;;;;;;;;;;;;;;;;4934361;29;2104;-48
2023/05/06 05:16:42;;;;;;;;;;;;;;;;;;4933828;29;1875;-57
2023/05/06 05:19:09;;;;;;;;;;;;;;;;;;4933534;29;1764;-57
2023/05/06 05:21:37;;;;;;;;;;;;;;;;;;4935233;29;1980;-57
2023/05/06 05:24:07;;;;;;;;;;;;;;;;;;4933866;29;2025;-57
2023/05/06 05:26:34;;;;;;;;;;;;;;;;;;4935180;29;1986;-50
2023/05/06 05:29:02;;;;;;;;;;;;;;;;;;4933972;29;2292;-53
2023/05/06 05:31:31;;;;;;;;;;;;;;;;;;4933721;29;1970;-57
2023/05/06 05:33:59;;;;;;;;;;;;;;;;;;4935079;29;1605;-53
2023/05/06 05:36:27;;;;;;;;;;;;;;;;;;4933733;29;2278;-50
2023/05/06 05:38:56;;;;;;;;;;;;;;;;;;4933742;29;2183;-55
2023/05/06 05:41:26;;;;;;;;;;;;;;;;;;4935093;29;1847;-58
2023/05/06 05:43:54;;;;;;;;;;;;;;;;;;4933306;29;1994;-51
2023/05/06 05:46:22;;;;;;;;;;;;;;;;;;4921773;29;1770;-55
2023/05/06 05:48:50;;;;;;;;;;;;;;;;;;4914557;29;2045;-53
2023/05/06 05:51:20;;;;;;;;;;;;;;;;;;4914415;29;1978;-48
2023/05/06 05:53:50;;;;;;;;;;;;;;;;;;4921565;29;2159;-50
2023/05/06 05:56:19;;;;;;;;;;;;;;;;;;4934447;29;2073;-55
2023/05/06 05:58:47;;;;;;;;;;;;;;;;;;4933286;29;1828;-45
2023/05/06 06:01:15;;;;;;;;;;;;;;;;;;4933309;29;2049;-44
2023/05/06 06:03:42;;;;;;;;;;;;;;;;;;4933113;29;2207;-49
2023/05/06 06:06:10;;;;;;;;;;;;;;;;;;4934387;29;2133;-48
2023/05/06 06:08:38;;;;;;;;;;;;;;;;;;4933136;29;1834;-50
2023/05/06 06:11:06;;;;;;;;;;;;;;;;;;4933145;29;2271;-51
2023/05/06 06:13:38;;;;;;;;;;;;;;;;;;4932860;29;2091;-47
2023/05/06 06:16:06;;;;;;;;;;;;;;;;;;4934644;29;2121;-48
2023/05/06 06:18:34;;;;;;;;;;;;;;;;;;4934254;29;2125;-51
2023/05/06 06:21:01;;;;;;;;;;;;;;;;;;4932806;29;1800;-56
2023/05/06 06:23:29;;;;;;;;;;;;;;;;;;4934156;29;1626;-54
2023/05/06 06:25:56;;;;;;;;;;;;;;;;;;4933100;29;1820;-54
2023/05/06 06:28:23;;;;;;;;;;;;;;;;;;4934370;29;2092;-54
2023/05/06 06:30:51;;;;;;;;;;;;;;;;;;4934089;29;2022;-56
2023/05/06 06:33:18;;;;;;;;;;;;;;;;;;4934085;29;2078;-53
2023/05/06 06:35:45;;;;;;;;;;;;;;;;;;4932609;29;1712;-57
2023/05/06 06:38:13;;;;;;;;;;;;;;;;;;4932707;29;1808;-52
2023/05/06 06:40:40;;;;;;;;;;;;;;;;;;4934265;29;2222;-55
2023/05/06 06:43:07;;;;;;;;;;;;;;;;;;4934169;29;2057;-56
2023/05/06 06:45:45;;;;;;;;;;;;;;;;;;4934076;29;1993;-55
2023/05/06 06:48:13;;;;;;;;;;;;;;;;;;4934074;29;1869;-58
2023/05/06 06:50:40;;;;;;;;;;;;;;;;;;4933850;29;2014;-54
2023/05/06 06:53:08;;;;;;;;;;;;;;;;;;4934202;29;1835;-57
2023/05/06 06:55:35;;;;;;;;;;;;;;;;;;4934098;29;2175;-54
2023/05/06 06:58:02;;;;;;;;;;;;;;;;;;4934266;29;1963;-55
2023/05/06 07:00:29;;;;;;;;;;;;;;;;;;4933936;29;1829;-46
2023/05/06 07:02:56;;;;;;;;;;;;;;;;;;4934069;29;2067;-57
2023/05/06 07:05:25;;;;;;;;;;;;;;;;;;4933780;29;2024;-53
2023/05/06 07:07:54;;;;;;;;;;;;;;;;;;4932543;29;1943;-56
2023/05/06 07:10:21;;;;;;;;;;;;;;;;;;4933833;29;1974;-57
2023/05/06 07:12:48;;;;;;;;;;;;;;;;;;4933753;29;1735;-53
2023/05/06 07:15:15;;;;;;;;;;;;;;;;;;4933797;29;1993;-51
2023/05/06 07:17:43;;;;;;;;;;;;;;;;;;4933655;29;1823;-53
2023/05/06 07:20:10;;;;;;;;;;;;;;;;;;4933887;29;1897;-55
2023/05/06 07:22:40;;;;;;;;;;;;;;;;;;4933516;29;1870;-57
2023/05/06 07:25:07;;;;;;;;;;;;;;;;;;4933708;29;1708;-59
2023/05/06 07:27:35;;;;;;;;;;;;;;;;;;4936206;29;1860;-52
2023/05/06 07:30:02;;;;;;;;;;;;;;;;;;4937328;29;2058;-54
2023/05/06 07:32:29;;;;;;;;;;;;;;;;;;4937081;29;1970;-59
2023/05/06 07:34:57;;;;;;;;;;;;;;;;;;4937302;29;1991;-58
2023/05/06 07:37:24;;;;;;;;;;;;;;;;;;4937232;29;1879;-58
2023/05/06 07:39:51;;;;;;;;;;;;;;;;;;4937128;29;2232;-58
2023/05/06 07:42:18;;;;;;;;;;;;;;;;;;4937352;29;1933;-59
2023/05/06 07:44:45;;;;;;;;;;;;;;;;;;4937194;29;1758;-59
2023/05/06 07:47:16;;;;;;;;;;;;;;;;;;4937144;29;1839;-52
2023/05/06 07:49:43;;;;;;;;;;;;;;;;;;4937076;29;1718;-51
2023/05/06 07:52:10;;;;;;;;;;;;;;;;;;4936660;29;1946;-59
2023/05/06 07:54:40;;;;;;;;;;;;;;;;;;4936638;29;2192;-59
2023/05/06 07:57:07;;;;;;;;;;;;;;;;;;4937047;29;2174;-56
2023/05/06 07:59:34;;;;;;;;;;;;;;;;;;4936574;29;2176;-55
2023/05/06 08:02:01;;;;;;;;;;;;;;;;;;4936767;29;1958;-59
2023/05/06 08:04:29;;;;;;;;;;;;;;;;;;4936689;29;2074;-55
2023/05/06 08:06:56;;;;;;;;;;;;;;;;;;4936790;29;2101;-57
2023/05/06 08:09:23;;;;;;;;;;;;;;;;;;4936594;29;1893;-58
2023/05/06 08:11:50;;;;;;;;;;;;;;;;;;4936431;29;2147;-53
2023/05/06 08:14:17;;;;;;;;;;;;;;;;;;4936668;29;1899;-59
2023/05/06 08:16:45;;;;;;;;;;;;;;;;;;4936365;29;1778;-51
2023/05/06 08:19:12;;;;;;;;;;;;;;;;;;4936885;29;1745;-59
2023/05/06 08:21:40;;;;;;;;;;;;;;;;;;4936517;29;1523;-56
2023/05/06 08:24:12;;;;;;;;;;;;;;;;;;4936845;29;1641;-52
2023/05/06 08:26:40;;;;;;;;;;;;;;;;;;4936265;29;2100;-54
2023/05/06 08:29:07;;;;;;;;;;;;;;;;;;4936170;29;1846;-57
2023/05/06 08:31:34;;;;;;;;;;;;;;;;;;4935951;29;2030;-57
2023/05/06 08:34:01;;;;;;;;;;;;;;;;;;4936548;29;1696;-57
2023/05/06 08:36:28;;;;;;;;;;;;;;;;;;4936115;29;2164;-54
2023/05/06 08:38:55;;;;;;;;;;;;;;;;;;4934490;29;2003;-51
2023/05/06 08:41:23;;;;;;;;;;;;;;;;;;4935974;29;2050;-58
2023/05/06 08:43:52;;;;;;;;;;;;;;;;;;4935848;29;1772;-55
2023/05/06 08:46:19;;;;;;;;;;;;;;;;;;4936249;29;1383;-57
2023/05/06 08:48:46;;;;;;;;;;;;;;;;;;4935893;29;1726;-49
2023/05/06 08:51:14;;;;;;;;;;;;;;;;;;4935921;29;1907;-57
2023/05/06 08:53:46;;;;;;;;;;;;;;;;;;4935836;29;2303;-57
2023/05/06 08:56:14;;;;;;;;;;;;;;;;;;4935861;29;1499;-52
2023/05/06 08:58:44;;;;;;;;;;;;;;;;;;4935721;29;1409;-49
2023/05/06 09:01:12;;;;;;;;;;;;;;;;;;4935694;29;2091;-54
2023/05/06 09:03:40;;;;;;;;;;;;;;;;;;4936020;29;1875;-58
2023/05/06 09:06:07;;;;;;;;;;;;;;;;;;4935468;29;2145;-59
2023/05/06 09:08:35;;;;;;;;;;;;;;;;;;4935520;29;2052;-59
2023/05/06 09:11:02;;;;;;;;;;;;;;;;;;4935299;29;2124;-57
2023/05/06 09:13:29;;;;;;;;;;;;;;;;;;4935556;29;1784;-54
2023/05/06 09:15:56;;;;;;;;;;;;;;;;;;4935765;29;1535;-53
2023/05/06 09:18:23;;;;;;;;;;;;;;;;;;4935367;29;1554;-58
2023/05/06 09:20:51;;;;;;;;;;;;;;;;;;4935521;29;1745;-58
2023/05/06 09:23:18;;;;;;;;;;;;;;;;;;4935163;29;2067;-59
2023/05/06 09:25:46;;;;;;;;;;;;;;;;;;4934869;29;2109;-58
2023/05/06 09:28:13;;;;;;;;;;;;;;;;;;4935311;29;2178;-54
2023/05/06 09:30:41;;;;;;;;;;;;;;;;;;4934815;29;2004;-53
2023/05/06 09:33:09;;;;;;;;;;;;;;;;;;4935068;29;2080;-57
2023/05/06 09:35:37;;;;;;;;;;;;;;;;;;4935138;29;1712;-59
2023/05/06 09:38:04;;;;;;;;;;;;;;;;;;4934982;29;2236;-59
2023/05/06 09:40:36;;;;;;;;;;;;;;;;;;4935274;29;1298;-55
2023/05/06 09:43:04;;;;;;;;;;;;;;;;;;4935218;29;2210;-57
2023/05/06 09:45:32;;;;;;;;;;;;;;;;;;4934497;29;2008;-49
2023/05/06 09:48:01;;;;;;;;;;;;;;;;;;4934888;29;2344;-56
2023/05/06 09:50:28;;;;;;;;;;;;;;;;;;4933926;29;1872;-56
2023/05/06 09:52:56;;;;;;;;;;;;;;;;;;4934449;29;1906;-58
2023/05/06 09:55:25;;;;;;;;;;;;;;;;;;4934660;29;1975;-57
2023/05/06 09:57:53;;;;;;;;;;;;;;;;;;4934476;29;1946;-58
2023/05/06 10:00:26;;;;;;;;;;;;;;;;;;4934877;29;2379;-59
2023/05/06 10:02:54;;;;;;;;;;;;;;;;;;4934392;29;1719;-59
2023/05/06 10:05:21;;;;;;;;;;;;;;;;;;4934591;29;1704;-44
2023/05/06 10:07:51;;;;;;;;;;;;;;;;;;4934762;29;1680;-54
2023/05/06 10:10:18;;;;;;;;;;;;;;;;;;4934624;29;2213;-55
2023/05/06 10:12:46;;;;;;;;;;;;;;;;;;4934060;29;2004;-55
2023/05/06 10:15:15;;;;;;;;;;;;;;;;;;4934349;29;1502;-58
2023/05/06 10:17:46;;;;;;;;;;;;;;;;;;4934377;29;2111;-57
2023/05/06 10:20:15;;;;;;;;;;;;;;;;;;4934403;29;1982;-59
2023/05/06 10:22:51;;;;;;;;;;;;;;;;;;4934079;29;1924;-55
2023/05/06 10:25:22;;;;;;;;;;;;;;;;;;4934503;29;2301;-54
2023/05/06 10:27:49;;;;;;;;;;;;;;;;;;4934230;29;1936;-54
2023/05/06 10:30:17;;;;;;;;;;;;;;;;;;4934193;29;2286;-58
2023/05/06 10:32:45;;;;;;;;;;;;;;;;;;4933944;29;1960;-57
2023/05/06 10:35:12;;;;;;;;;;;;;;;;;;4934150;29;2272;-59
2023/05/06 10:37:40;;;;;;;;;;;;;;;;;;4934283;29;2183;-58
2023/05/06 10:40:08;;;;;;;;;;;;;;;;;;4934131;29;2003;-47
2023/05/06 10:42:36;;;;;;;;;;;;;;;;;;4933932;29;2236;-52
2023/05/06 10:45:04;;;;;;;;;;;;;;;;;;4934138;29;2181;-58
2023/05/06 10:47:59;;;;;;;;;;;;;;;;;;4932769;29;2453;-55
2023/05/06 10:50:26;;;;;;;;;;;;;;;;;;4935755;29;1915;-58
2023/05/06 10:52:54;;;;;;;;;;;;;;;;;;4933834;29;1903;-58
2023/05/06 10:55:26;;;;;;;;;;;;;;;;;;4915330;29;1861;-58
2023/05/06 10:57:55;;;;;;;;;;;;;;;;;;4915010;29;2005;-50
2023/05/06 11:00:22;;;;;;;;;;;;;;;;;;4916709;29;1871;-58
2023/05/06 11:02:53;;;;;;;;;;;;;;;;;;4921442;29;1474;-59
2023/05/06 11:05:21;;;;;;;;;;;;;;;;;;4921360;29;1865;-56
2023/05/06 11:07:49;;;;;;;;;;;;;;;;;;4921223;29;1673;-58
2023/05/06 11:10:30;;;;;;;;;;;;;;;;;;4921068;29;2278;-58
2023/05/06 11:12:57;;;;;;;;;;;;;;;;;;4920814;29;2009;-51
2023/05/06 11:15:41;;;;;;;;;;;;;;;;;;4935676;29;1883;-51
2023/05/06 11:18:28;;;;;;;;;;;;;;;;;;4920790;29;1892;-58
2023/05/06 11:21:01;;;;;;;;;;;;;;;;;;4921124;29;1893;-51
2023/05/06 11:23:41;;;;;;;;;;;;;;;;;;4920990;29;1993;-53
2023/05/06 11:26:09;;;;;;;;;;;;;;;;;;4921056;29;1921;-59
2023/05/06 11:28:37;;;;;;;;;;;;;;;;;;4920798;29;1847;-59
2023/05/06 11:31:05;;;;;;;;;;;;;;;;;;4920931;29;2054;-55
2023/05/06 11:33:35;;;;;;;;;;;;;;;;;;4920792;29;1960;-57
2023/05/06 11:36:03;;;;;;;;;;;;;;;;;;4920842;29;2042;-55
2023/05/06 11:38:46;;;;;;;;;;;;;;;;;;4920817;29;2036;-52
2023/05/06 11:41:14;;;;;;;;;;;;;;;;;;4920912;29;1948;-58
2023/05/06 11:43:45;;;;;;;;;;;;;;;;;;4920571;29;1774;-50
2023/05/06 11:46:12;;;;;;;;;;;;;;;;;;4920853;29;1971;-55
2023/05/06 11:48:39;;;;;;;;;;;;;;;;;;4920786;29;1866;-53
2023/05/06 11:51:07;;;;;;;;;;;;;;;;;;4919660;29;2147;-55
2023/05/06 11:53:34;;;;;;;;;;;;;;;;;;4925611;29;2185;-57
2023/05/06 11:56:01;;;;;;;;;;;;;;;;;;4938956;29;2070;-58
2023/05/06 11:58:29;;;;;;;;;;;;;;;;;;4939415;29;2044;-46
2023/05/06 12:00:58;;;;;;;;;;;;;;;;;;4939085;29;1267;-58
2023/05/06 12:03:27;;;;;;;;;;;;;;;;;;4937850;29;2082;-57
2023/05/06 12:05:55;;;;;;;;;;;;;;;;;;4937649;29;1723;-58
2023/05/06 12:08:24;;;;;;;;;;;;;;;;;;4937827;29;1826;-58
2023/05/06 12:10:55;;;;;;;;;;;;;;;;;;4937764;29;1777;-51
2023/05/06 12:13:22;;;;;;;;;;;;;;;;;;4934417;29;1994;-46
2023/05/06 12:15:50;;;;;;;;;;;;;;;;;;4935212;29;2135;-41
2023/05/06 12:18:17;;;;;;;;;;;;;;;;;;4936613;29;1596;-55
2023/05/06 12:20:44;;;;;;;;;;;;;;;;;;4936220;29;1842;-55
2023/05/06 12:23:12;;;;;;;;;;;;;;;;;;4936304;29;2097;-51
2023/05/06 12:25:41;;;;;;;;;;;;;;;;;;4936444;29;1585;-58
2023/05/06 12:28:15;;;;;;;;;;;;;;;;;;4936205;29;2051;-58
2023/05/06 12:30:43;;;;;;;;;;;;;;;;;;4936292;29;1663;-58
2023/05/06 12:33:10;;;;;;;;;;;;;;;;;;4934790;29;2475;-54
2023/05/06 12:35:38;;;;;;;;;;;;;;;;;;4936028;29;1619;-55
2023/05/06 12:38:12;;;;;;;;;;;;;;;;;;4936407;29;2081;-59
2023/05/06 12:40:40;;;;;;;;;;;;;;;;;;4936019;29;2135;-55
2023/05/06 12:43:09;;;;;;;;;;;;;;;;;;4936283;29;2077;-57
2023/05/06 12:45:40;;;;;;;;;;;;;;;;;;4935966;29;2017;-51
2023/05/06 12:48:14;;;;;;;;;;;;;;;;;;4936104;29;1820;-58
2023/05/06 12:50:43;;;;;;;;;;;;;;;;;;4935740;29;2146;-58
2023/05/06 12:53:14;;;;;;;;;;;;;;;;;;4935915;29;2002;-55
2023/05/06 12:55:41;;;;;;;;;;;;;;;;;;4935733;29;1879;-56
2023/05/06 12:58:16;;;;;;;;;;;;;;;;;;4935844;29;1876;-43
2023/05/06 13:00:43;;;;;;;;;;;;;;;;;;4934637;29;2166;-56
2023/05/06 13:03:13;;;;;;;;;;;;;;;;;;4935909;29;1887;-40
2023/05/06 13:05:40;;;;;;;;;;;;;;;;;;4935856;29;1822;-41
2023/05/06 13:08:07;;;;;;;;;;;;;;;;;;4935827;29;1865;-59
2023/05/06 13:10:35;;;;;;;;;;;;;;;;;;4935423;29;1960;-55
2023/05/06 13:13:02;;;;;;;;;;;;;;;;;;4933328;29;2295;-50
2023/05/06 13:15:29;;;;;;;;;;;;;;;;;;4916814;29;1964;-52
2023/05/06 13:17:57;;;;;;;;;;;;;;;;;;4916382;29;1729;-54
2023/05/06 13:20:24;;;;;;;;;;;;;;;;;;4916467;29;2053;-56
2023/05/06 13:22:51;;;;;;;;;;;;;;;;;;4915910;29;1779;-54
2023/05/06 13:25:21;;;;;;;;;;;;;;;;;;4915373;29;1882;-54
2023/05/06 13:27:48;;;;;;;;;;;;;;;;;;4915909;29;2100;-53
2023/05/06 13:30:15;;;;;;;;;;;;;;;;;;4916096;29;1862;-54
2023/05/06 13:32:43;;;;;;;;;;;;;;;;;;4916132;29;1956;-51
2023/05/06 13:35:11;;;;;;;;;;;;;;;;;;4916110;29;1849;-52
2023/05/06 13:37:38;;;;;;;;;;;;;;;;;;4915821;29;1860;-56
2023/05/06 13:40:06;;;;;;;;;;;;;;;;;;4915754;29;2030;-52
2023/05/06 13:42:35;;;;;;;;;;;;;;;;;;4916087;29;2309;-58
2023/05/06 13:45:02;;;;;;;;;;;;;;;;;;4916116;29;1829;-57
2023/05/06 13:47:30;;;;;;;;;;;;;;;;;;4916095;29;1953;-49
2023/05/06 13:49:57;;;;;;;;;;;;;;;;;;4915814;29;1834;-56
2023/05/06 13:52:24;;;;;;;;;;;;;;;;;;4915845;29;2006;-41
2023/05/06 13:54:52;;;;;;;;;;;;;;;;;;4930626;29;1856;-58
2023/05/06 13:57:19;;;;;;;;;;;;;;;;;;4934949;29;1790;-58
2023/05/06 13:59:46;;;;;;;;;;;;;;;;;;4934512;29;1947;-54
2023/05/06 14:02:13;;;;;;;;;;;;;;;;;;4934635;29;1697;-58
2023/05/06 14:04:40;;;;;;;;;;;;;;;;;;4934595;29;1706;-53
2023/05/06 14:07:07;;;;;;;;;;;;;;;;;;4934326;29;1708;-56
2023/05/06 14:09:35;;;;;;;;;;;;;;;;;;4934841;29;1901;-52
2023/05/06 14:12:02;;;;;;;;;;;;;;;;;;4934253;29;1982;-57
2023/05/06 14:14:29;;;;;;;;;;;;;;;;;;4934298;29;1418;-58
2023/05/06 14:16:57;;;;;;;;;;;;;;;;;;4934442;29;1743;-56
2023/05/06 14:19:24;;;;;;;;;;;;;;;;;;4934224;29;1934;-54
2023/05/06 14:21:51;;;;;;;;;;;;;;;;;;4934276;29;2122;-58
2023/05/06 14:24:18;;;;;;;;;;;;;;;;;;4934525;29;1311;-56
2023/05/06 14:26:45;;;;;;;;;;;;;;;;;;4934108;29;1864;-42
2023/05/06 14:29:13;;;;;;;;;;;;;;;;;;4934162;29;1991;-58
2023/05/06 14:31:40;;;;;;;;;;;;;;;;;;4934078;29;1933;-47
2023/05/06 14:34:07;;;;;;;;;;;;;;;;;;4934455;29;2021;-58
2023/05/06 14:36:34;;;;;;;;;;;;;;;;;;4933848;29;1440;-57
2023/05/06 14:39:02;;;;;;;;;;;;;;;;;;4933992;29;1986;-57
2023/05/06 14:41:29;;;;;;;;;;;;;;;;;;4934068;29;1974;-55
2023/05/06 14:43:56;;;;;;;;;;;;;;;;;;4933945;29;1806;-58
2023/05/06 14:46:24;;;;;;;;;;;;;;;;;;4933927;29;2188;-58
2023/05/06 14:48:53;;;;;;;;;;;;;;;;;;4933888;29;1715;-55
2023/05/06 14:51:20;;;;;;;;;;;;;;;;;;4932680;29;2255;-53
2023/05/06 14:53:48;;;;;;;;;;;;;;;;;;4933604;29;1915;-40
2023/05/06 14:56:15;;;;;;;;;;;;;;;;;;4933952;29;1879;-47
2023/05/06 14:58:43;;;;;;;;;;;;;;;;;;4933788;29;1716;-54
2023/05/06 15:01:10;;;;;;;;;;;;;;;;;;4933835;29;1884;-40
2023/05/06 15:03:37;;;;;;;;;;;;;;;;;;4934161;29;1976;-55
2023/05/06 15:06:04;;;;;;;;;;;;;;;;;;4933689;29;1469;-41
2023/05/06 15:08:32;;;;;;;;;;;;;;;;;;4933361;29;2166;-48
2023/05/06 15:10:59;;;;;;;;;;;;;;;;;;4933451;29;1680;-58
2023/05/06 15:13:29;;;;;;;;;;;;;;;;;;4933348;29;1912;-58
2023/05/06 15:15:56;;;;;;;;;;;;;;;;;;4934113;29;2215;-58
2023/05/06 15:18:23;;;;;;;;;;;;;;;;;;4933380;29;2002;-56
2023/05/06 15:20:53;;;;;;;;;;;;;;;;;;4933547;29;1674;-51
2023/05/06 15:23:21;;;;;;;;;;;;;;;;;;4933277;29;2145;-52
2023/05/06 15:25:48;;;;;;;;;;;;;;;;;;4933355;29;2021;-57
2023/05/06 15:28:15;;;;;;;;;;;;;;;;;;4933596;29;1463;-53
2023/05/06 15:30:42;;;;;;;;;;;;;;;;;;4933281;29;1930;-46
2023/05/06 15:33:09;;;;;;;;;;;;;;;;;;4933731;29;1974;-45
2023/05/06 15:35:36;;;;;;;;;;;;;;;;;;4933696;29;1807;-42
2023/05/06 15:38:04;;;;;;;;;;;;;;;;;;4933266;29;1756;-51
2023/05/06 15:40:31;;;;;;;;;;;;;;;;;;4933503;29;1445;-58
2023/05/06 15:42:58;;;;;;;;;;;;;;;;;;4933624;29;2399;-56
2023/05/06 15:45:26;;;;;;;;;;;;;;;;;;4933597;29;1604;-58
2023/05/06 15:47:54;;;;;;;;;;;;;;;;;;4935170;29;1461;-58
2023/05/06 15:50:22;;;;;;;;;;;;;;;;;;4936818;29;1963;-54
2023/05/06 15:53:00;;;;;;;;;;;;;;;;;;4936680;29;1907;-59
2023/05/06 15:55:28;;;;;;;;;;;;;;;;;;4936192;29;1833;-58
2023/05/06 15:57:55;;;;;;;;;;;;;;;;;;4936335;29;1979;-57
2023/05/06 16:00:26;;;;;;;;;;;;;;;;;;4936900;29;1989;-56
2023/05/06 16:02:55;;;;;;;;;;;;;;;;;;4936890;29;1988;-59
2023/05/06 16:05:23;;;;;;;;;;;;;;;;;;4936508;29;1751;-57
2023/05/06 16:07:50;;;;;;;;;;;;;;;;;;4936756;29;1988;-57
2023/05/06 16:10:17;;;;;;;;;;;;;;;;;;4936803;29;1828;-58
2023/05/06 16:12:44;;;;;;;;;;;;;;;;;;4936560;29;2126;-50
2023/05/06 16:15:12;;;;;;;;;;;;;;;;;;4936215;29;1902;-57
2023/05/06 16:17:39;;;;;;;;;;;;;;;;;;4936640;29;2245;-58
2023/05/06 16:20:11;;;;;;;;;;;;;;;;;;4936665;29;1984;-53
2023/05/06 16:22:39;;;;;;;;;;;;;;;;;;4936223;29;1524;-58
2023/05/06 16:25:06;;;;;;;;;;;;;;;;;;4936689;29;1840;-58
2023/05/06 16:27:34;;;;;;;;;;;;;;;;;;4935979;29;1511;-40
2023/05/06 16:30:01;;;;;;;;;;;;;;;;;;4936136;29;2345;-59
2023/05/06 16:32:28;;;;;;;;;;;;;;;;;;4936239;29;1799;-57
2023/05/06 16:34:55;;;;;;;;;;;;;;;;;;4936142;29;1993;-47
2023/05/06 16:37:23;;;;;;;;;;;;;;;;;;4935742;29;1855;-41
2023/05/06 16:39:50;;;;;;;;;;;;;;;;;;4936188;29;1960;-40
2023/05/06 16:42:17;;;;;;;;;;;;;;;;;;4936217;29;1827;-50
2023/05/06 16:44:45;;;;;;;;;;;;;;;;;;4936465;29;2310;-42
2023/05/06 16:47:12;;;;;;;;;;;;;;;;;;4936197;29;1921;-41
2023/05/06 16:49:39;;;;;;;;;;;;;;;;;;4935928;29;2065;-40
2023/05/06 16:52:06;;;;;;;;;;;;;;;;;;4935795;29;1759;-50
2023/05/06 16:54:34;;;;;;;;;;;;;;;;;;4935576;29;1919;-57
2023/05/06 16:57:02;;;;;;;;;;;;;;;;;;4935700;29;1939;-52
2023/05/06 16:59:30;;;;;;;;;;;;;;;;;;4935262;29;2038;-57
2023/05/06 17:01:57;;;;;;;;;;;;;;;;;;4935738;29;1651;-51
2023/05/06 17:04:24;;;;;;;;;;;;;;;;;;4935765;29;2005;-54
2023/05/06 17:06:52;;;;;;;;;;;;;;;;;;4935578;29;1818;-44
2023/05/06 17:09:20;;;;;;;;;;;;;;;;;;4935587;29;1735;-58
2023/05/06 17:11:48;;;;;;;;;;;;;;;;;;4935512;29;1756;-42